createdAt,value
2022-10-28T00:00:35.224Z,63.70
2022-10-28T00:01:57.424Z,64.66
2022-10-28T00:03:03.688Z,64.17
2022-10-28T00:04:06.287Z,63.15
2022-10-28T00:05:08.918Z,62.18
2022-10-28T00:06:32.547Z,61.31
2022-10-28T00:07:34.274Z,60.35
2022-10-28T00:08:36.547Z,59.85
2022-10-28T00:09:38.254Z,59.35
2022-10-28T00:10:40.139Z,58.47
2022-10-28T00:11:41.832Z,58.29
2022-10-28T00:12:43.485Z,59.04
2022-10-28T00:13:45.804Z,60.02
2022-10-28T00:14:47.482Z,61.08
2022-10-28T00:15:49.128Z,62.46
2022-10-28T00:16:51.193Z,64.03
2022-10-28T00:17:54.118Z,64.84
2022-10-28T00:18:59.107Z,64.50
2022-10-28T00:20:01.103Z,63.60
2022-10-28T00:21:06.226Z,62.64
2022-10-28T00:22:07.911Z,61.70
2022-10-28T00:23:09.578Z,60.95
2022-10-28T00:24:13.382Z,60.25
2022-10-28T00:25:15.263Z,59.67
2022-10-28T00:26:22.997Z,58.92
2022-10-28T00:27:24.648Z,58.08
2022-10-28T00:28:26.260Z,58.44
2022-10-28T00:29:27.884Z,59.42
2022-10-28T00:31:37.747Z,61.51
2022-10-28T00:32:39.379Z,62.94
2022-10-28T00:33:41.826Z,64.53
2022-10-28T00:34:43.490Z,65.07
2022-10-28T00:35:45.234Z,64.58
2022-10-28T00:36:48.320Z,63.67
2022-10-28T00:37:53.207Z,62.83
2022-10-28T00:38:56.424Z,61.92
2022-10-28T00:39:58.049Z,61.33
2022-10-28T00:40:59.900Z,60.72
2022-10-28T00:42:04.655Z,60.27
2022-10-28T00:43:06.447Z,59.86
2022-10-28T00:44:42.104Z,59.60
2022-10-28T00:45:43.810Z,58.70
2022-10-28T00:46:49.212Z,58.42
2022-10-28T00:47:57.552Z,59.20
2022-10-28T00:49:18.290Z,60.45
2022-10-28T00:50:43.907Z,61.96
2022-10-28T00:51:52.722Z,63.93
2022-10-28T00:53:01.866Z,64.72
2022-10-28T00:54:06.271Z,64.22
2022-10-28T00:55:09.074Z,63.33
2022-10-28T00:56:12.983Z,62.38
2022-10-28T00:57:19.215Z,61.54
2022-10-28T00:58:25.715Z,60.79
2022-10-28T00:59:33.867Z,60.16
2022-10-28T01:00:35.576Z,59.64
2022-10-28T01:01:37.613Z,59.02
2022-10-28T01:02:46.663Z,58.29
2022-10-28T01:03:48.484Z,58.80
2022-10-28T01:04:51.123Z,59.81
2022-10-28T01:05:53.497Z,60.96
2022-10-28T01:06:56.329Z,62.16
2022-10-28T01:08:01.259Z,63.72
2022-10-28T01:09:03.328Z,64.83
2022-10-28T01:10:07.106Z,64.59
2022-10-28T01:11:33.694Z,63.67
2022-10-28T01:13:11.286Z,62.16
2022-10-28T01:14:41.970Z,60.75
2022-10-28T01:16:01.320Z,59.75
2022-10-28T01:17:14.941Z,58.77
2022-10-28T01:18:35.747Z,58.11
2022-10-28T01:20:18.848Z,58.94
2022-10-28T01:21:57.585Z,60.79
2022-10-28T01:23:16.252Z,62.43
2022-10-28T01:24:37.581Z,64.22
2022-10-28T01:26:36.583Z,64.57
2022-10-28T01:27:55.358Z,62.85
2022-10-28T01:29:28.156Z,61.62
2022-10-28T01:30:53.827Z,60.46
2022-10-28T01:32:18.553Z,59.68
2022-10-28T01:34:02.858Z,58.61
2022-10-28T01:35:13.492Z,58.40
2022-10-28T01:36:38.808Z,59.48
2022-10-28T01:37:48.664Z,61.09
2022-10-28T01:38:58.495Z,62.35
2022-10-28T01:40:12.218Z,63.96
2022-10-28T01:41:33.794Z,64.74
2022-10-28T01:42:55.673Z,63.95
2022-10-28T01:44:09.191Z,62.78
2022-10-28T01:45:35.726Z,61.68
2022-10-28T01:46:47.347Z,60.71
2022-10-28T01:48:02.956Z,60.12
2022-10-28T01:49:14.159Z,59.55
2022-10-28T01:50:22.603Z,58.83
2022-10-28T01:51:38.010Z,58.13
2022-10-28T01:52:44.106Z,58.84
2022-10-28T01:53:51.306Z,60.21
2022-10-28T01:55:01.407Z,61.38
2022-10-28T01:56:09.696Z,63.21
2022-10-28T01:57:16.143Z,64.96
2022-10-28T01:58:23.559Z,65.35
2022-10-28T01:59:29.768Z,64.73
2022-10-28T02:00:34.532Z,63.82
2022-10-28T02:01:36.824Z,62.92
2022-10-28T02:02:41.198Z,62.14
2022-10-28T02:03:42.944Z,61.50
2022-10-28T02:04:44.641Z,60.93
2022-10-28T02:05:49.158Z,60.54
2022-10-28T02:06:55.797Z,60.05
2022-10-28T02:08:07.014Z,59.67
2022-10-28T02:09:34.041Z,59.19
2022-10-28T02:10:46.085Z,58.32
2022-10-28T02:12:12.482Z,59.02
2022-10-28T02:13:16.236Z,60.63
2022-10-28T02:14:36.690Z,61.77
2022-10-28T02:15:51.377Z,63.68
2022-10-28T02:17:10.465Z,64.92
2022-10-28T02:18:40.939Z,64.44
2022-10-28T02:19:57.641Z,63.07
2022-10-28T02:21:11.074Z,61.92
2022-10-28T02:22:24.815Z,61.11
2022-10-28T02:23:34.024Z,60.42
2022-10-28T02:24:47.433Z,59.82
2022-10-28T02:26:20.922Z,59.25
2022-10-28T02:27:56.413Z,58.24
2022-10-28T02:29:28.336Z,59.25
2022-10-28T02:30:42.291Z,60.93
2022-10-28T02:32:00.096Z,62.25
2022-10-28T02:33:06.480Z,64.03
2022-10-28T02:34:17.304Z,64.75
2022-10-28T02:35:30.452Z,64.19
2022-10-28T02:36:40.050Z,63.06
2022-10-28T02:37:46.759Z,62.00
2022-10-28T02:38:58.169Z,61.04
2022-10-28T02:40:09.984Z,60.20
2022-10-28T02:41:26.905Z,59.54
2022-10-28T02:42:38.050Z,58.46
2022-10-28T02:43:44.211Z,58.20
2022-10-28T02:44:53.413Z,59.00
2022-10-28T02:46:00.575Z,60.15
2022-10-28T02:47:13.826Z,61.35
2022-10-28T02:48:26.345Z,62.86
2022-10-28T02:49:32.211Z,64.56
2022-10-28T02:50:39.692Z,64.72
2022-10-28T02:51:52.310Z,63.95
2022-10-28T02:52:59.159Z,62.73
2022-10-28T02:54:13.298Z,61.75
2022-10-28T02:55:15.270Z,60.80
2022-10-28T02:56:21.349Z,60.11
2022-10-28T02:57:26.784Z,59.48
2022-10-28T02:58:29.503Z,58.51
2022-10-28T02:59:31.128Z,58.06
2022-10-28T03:00:32.836Z,58.64
2022-10-28T03:01:34.598Z,59.67
2022-10-28T03:02:36.839Z,60.75
2022-10-28T03:03:38.581Z,61.86
2022-10-28T03:04:40.249Z,63.02
2022-10-28T03:05:41.915Z,64.47
2022-10-28T03:06:43.559Z,64.76
2022-10-28T03:07:45.219Z,64.08
2022-10-28T03:08:47.056Z,63.09
2022-10-28T03:09:48.727Z,62.08
2022-10-28T03:10:50.349Z,61.17
2022-10-28T03:11:52.123Z,60.34
2022-10-28T03:12:53.775Z,59.67
2022-10-28T03:13:55.489Z,58.80
2022-10-28T03:14:57.078Z,57.89
2022-10-28T03:15:58.673Z,58.17
2022-10-28T03:17:00.313Z,59.10
2022-10-28T03:18:01.989Z,60.09
2022-10-28T03:19:03.725Z,61.23
2022-10-28T03:20:05.951Z,62.35
2022-10-28T03:21:07.852Z,63.83
2022-10-28T03:22:09.505Z,64.89
2022-10-28T03:23:11.158Z,64.70
2022-10-28T03:24:12.888Z,63.89
2022-10-28T03:25:14.614Z,62.87
2022-10-28T03:26:16.264Z,61.94
2022-10-28T03:27:17.928Z,61.07
2022-10-28T03:28:20.205Z,60.35
2022-10-28T03:29:21.940Z,59.76
2022-10-28T03:30:23.648Z,59.08
2022-10-28T03:31:25.300Z,58.15
2022-10-28T03:32:27.046Z,58.18
2022-10-28T03:33:28.691Z,59.03
2022-10-28T03:34:30.327Z,60.08
2022-10-28T03:35:31.983Z,60.96
2022-10-28T03:36:33.703Z,62.23
2022-10-28T03:37:35.892Z,64.01
2022-10-28T03:38:37.543Z,65.11
2022-10-28T03:39:39.387Z,65.09
2022-10-28T03:40:41.057Z,64.44
2022-10-28T03:41:42.711Z,63.43
2022-10-28T03:42:44.473Z,62.56
2022-10-28T03:43:46.216Z,61.77
2022-10-28T03:44:47.952Z,61.04
2022-10-28T03:45:49.598Z,60.43
2022-10-28T03:46:51.280Z,59.95
2022-10-28T03:47:53.362Z,59.52
2022-10-28T03:48:55.282Z,58.87
2022-10-28T03:49:56.907Z,58.24
2022-10-28T03:50:58.559Z,58.69
2022-10-28T03:52:00.201Z,59.70
2022-10-28T03:53:01.964Z,60.93
2022-10-28T03:54:03.728Z,62.14
2022-10-28T03:55:05.770Z,63.63
2022-10-28T03:56:08.670Z,64.82
2022-10-28T03:57:10.392Z,64.80
2022-10-28T03:58:12.042Z,64.07
2022-10-28T03:59:16.348Z,63.17
2022-10-28T04:00:21.301Z,62.24
2022-10-28T04:01:23.113Z,61.37
2022-10-28T04:02:24.895Z,60.69
2022-10-28T04:03:26.847Z,60.08
2022-10-28T04:04:30.784Z,59.56
2022-10-28T04:05:32.703Z,58.78
2022-10-28T04:06:34.335Z,58.10
2022-10-28T04:07:36.014Z,58.53
2022-10-28T04:08:37.974Z,59.43
2022-10-28T04:09:39.652Z,60.59
2022-10-28T04:10:46.247Z,61.72
2022-10-28T04:11:51.906Z,63.18
2022-10-28T04:12:54.150Z,64.61
2022-10-28T04:13:56.010Z,64.74
2022-10-28T04:14:57.657Z,64.02
2022-10-28T04:15:59.614Z,63.04
2022-10-28T04:17:01.286Z,62.04
2022-10-28T04:18:03.948Z,61.13
2022-10-28T04:19:05.628Z,60.36
2022-10-28T04:20:08.240Z,59.75
2022-10-28T04:21:09.954Z,59.02
2022-10-28T04:22:11.726Z,58.10
2022-10-28T04:23:16.320Z,58.23
2022-10-28T04:24:18.023Z,59.11
2022-10-28T04:25:19.646Z,60.21
2022-10-28T04:26:21.352Z,61.29
2022-10-28T04:27:23.055Z,62.52
2022-10-28T04:28:24.762Z,64.05
2022-10-28T04:29:26.429Z,64.84
2022-10-28T04:30:28.073Z,64.60
2022-10-28T04:31:29.833Z,63.75
2022-10-28T04:32:31.629Z,62.86
2022-10-28T04:33:33.327Z,61.90
2022-10-28T04:34:34.995Z,61.11
2022-10-28T04:35:39.195Z,60.47
2022-10-28T04:36:40.876Z,59.86
2022-10-28T04:37:42.580Z,59.48
2022-10-28T04:38:44.545Z,58.67
2022-10-28T04:39:46.191Z,57.98
2022-10-28T04:40:49.174Z,58.58
2022-10-28T04:41:50.863Z,59.39
2022-10-28T04:42:52.664Z,60.58
2022-10-28T04:43:56.298Z,61.87
2022-10-28T04:44:58.348Z,63.22
2022-10-28T04:46:05.868Z,64.54
2022-10-28T04:47:08.026Z,65.02
2022-10-28T04:48:10.740Z,64.40
2022-10-28T04:49:12.435Z,63.47
2022-10-28T04:50:14.480Z,62.66
2022-10-28T04:51:16.324Z,61.84
2022-10-28T04:52:18.153Z,61.16
2022-10-28T04:53:19.828Z,60.48
2022-10-28T04:54:22.069Z,59.96
2022-10-28T04:55:23.972Z,59.60
2022-10-28T04:56:25.617Z,58.95
2022-10-28T04:57:27.343Z,58.25
2022-10-28T04:58:28.971Z,58.58
2022-10-28T04:59:30.598Z,59.61
2022-10-28T05:00:32.380Z,60.82
2022-10-28T05:01:34.116Z,62.03
2022-10-28T05:02:35.987Z,63.51
2022-10-28T05:03:37.883Z,64.89
2022-10-28T05:04:39.639Z,65.04
2022-10-28T05:05:41.321Z,64.37
2022-10-28T05:06:43.039Z,63.45
2022-10-28T05:07:45.424Z,62.57
2022-10-28T05:08:47.107Z,61.72
2022-10-28T05:09:48.739Z,60.99
2022-10-28T05:10:51.173Z,60.42
2022-10-28T05:11:52.887Z,59.92
2022-10-28T05:12:54.623Z,59.54
2022-10-28T05:13:56.325Z,58.81
2022-10-28T05:14:57.926Z,58.20
2022-10-28T05:15:59.584Z,58.51
2022-10-28T05:17:01.236Z,59.44
2022-10-28T05:18:03.027Z,60.70
2022-10-28T05:19:04.844Z,61.93
2022-10-28T05:20:08.240Z,63.47
2022-10-28T05:21:09.896Z,64.90
2022-10-28T05:22:11.589Z,65.01
2022-10-28T05:23:13.370Z,64.31
2022-10-28T05:24:15.008Z,63.42
2022-10-28T05:25:18.501Z,62.43
2022-10-28T05:26:20.212Z,61.57
2022-10-28T05:27:21.856Z,60.87
2022-10-28T05:28:23.609Z,60.37
2022-10-28T05:29:27.694Z,59.90
2022-10-28T05:30:31.410Z,59.51
2022-10-28T05:31:33.046Z,58.86
2022-10-28T05:32:34.733Z,58.19
2022-10-28T05:33:36.477Z,58.63
2022-10-28T05:34:38.301Z,59.50
2022-10-28T05:35:40.127Z,60.71
2022-10-28T05:36:41.771Z,61.92
2022-10-28T05:37:43.834Z,63.40
2022-10-28T05:38:45.606Z,65.03
2022-10-28T05:39:47.411Z,65.54
2022-10-28T05:40:49.140Z,65.16
2022-10-28T05:41:50.785Z,64.28
2022-10-28T05:42:52.805Z,63.44
2022-10-28T05:43:54.701Z,62.59
2022-10-28T05:44:56.373Z,61.94
2022-10-28T05:45:58.342Z,61.31
2022-10-28T05:46:59.988Z,60.87
2022-10-28T05:48:01.895Z,60.47
2022-10-28T05:49:04.321Z,60.11
2022-10-28T05:50:06.365Z,59.79
2022-10-28T05:51:08.104Z,59.53
2022-10-28T05:52:09.776Z,59.15
2022-10-28T05:53:11.421Z,58.38
2022-10-28T05:54:13.090Z,58.58
2022-10-28T05:55:16.210Z,59.24
2022-10-28T05:56:18.586Z,60.72
2022-10-28T05:57:20.257Z,62.05
2022-10-28T05:58:21.973Z,63.66
2022-10-28T05:59:23.764Z,65.12
2022-10-28T06:00:27.272Z,65.38
2022-10-28T06:01:29.143Z,64.80
2022-10-28T06:02:30.939Z,63.97
2022-10-28T06:03:32.719Z,63.09
2022-10-28T06:04:34.620Z,62.34
2022-10-28T06:05:43.981Z,61.76
2022-10-28T06:06:45.768Z,61.07
2022-10-28T06:07:47.513Z,60.65
2022-10-28T06:08:49.314Z,60.15
2022-10-28T06:09:51.194Z,59.78
2022-10-28T06:10:56.330Z,59.52
2022-10-28T06:11:58.146Z,58.71
2022-10-28T06:13:00.342Z,58.36
2022-10-28T06:14:02.332Z,59.04
2022-10-28T06:15:04.552Z,60.04
2022-10-28T06:16:07.179Z,61.27
2022-10-28T06:17:08.826Z,62.40
2022-10-28T06:18:11.274Z,64.07
2022-10-28T06:19:14.135Z,65.46
2022-10-28T06:20:17.662Z,65.46
2022-10-28T06:21:19.347Z,64.79
2022-10-28T06:22:21.658Z,63.86
2022-10-28T06:23:25.720Z,62.96
2022-10-28T06:24:27.453Z,62.28
2022-10-28T06:25:29.135Z,61.74
2022-10-28T06:26:30.796Z,61.18
2022-10-28T06:27:32.459Z,60.68
2022-10-28T06:28:34.423Z,60.34
2022-10-28T06:29:36.093Z,60.07
2022-10-28T06:30:37.762Z,59.75
2022-10-28T06:31:42.964Z,59.49
2022-10-28T06:32:44.624Z,58.91
2022-10-28T06:33:46.226Z,58.23
2022-10-28T06:34:47.855Z,58.80
2022-10-28T06:35:49.625Z,59.95
2022-10-28T06:36:51.788Z,61.13
2022-10-28T06:37:55.311Z,61.99
2022-10-28T06:38:57.282Z,63.96
2022-10-28T06:39:59.309Z,65.31
2022-10-28T06:41:01.656Z,65.91
2022-10-28T06:42:03.722Z,65.48
2022-10-28T06:43:07.104Z,64.71
2022-10-28T06:44:08.835Z,63.98
2022-10-28T06:45:10.493Z,63.20
2022-10-28T06:46:12.429Z,62.59
2022-10-28T06:47:15.947Z,62.22
2022-10-28T06:48:17.653Z,61.89
2022-10-28T06:49:19.322Z,61.58
2022-10-28T06:50:20.967Z,61.28
2022-10-28T06:51:23.746Z,61.07
2022-10-28T06:52:25.421Z,60.95
2022-10-28T06:53:27.155Z,60.79
2022-10-28T06:54:28.831Z,60.76
2022-10-28T06:55:31.420Z,60.74
2022-10-28T06:56:33.449Z,60.71
2022-10-28T06:57:35.145Z,60.64
2022-10-28T06:58:37.215Z,60.53
2022-10-28T06:59:39.709Z,60.43
2022-10-28T07:00:43.691Z,60.39
2022-10-28T07:01:45.535Z,60.35
2022-10-28T07:02:52.622Z,60.31
2022-10-28T07:03:54.333Z,60.18
2022-10-28T07:04:56.004Z,60.03
2022-10-28T07:05:57.666Z,59.92
2022-10-28T07:06:59.342Z,59.82
2022-10-28T07:08:01.031Z,59.76
2022-10-28T07:09:02.772Z,59.72
2022-10-28T07:10:05.909Z,59.68
2022-10-28T07:11:08.340Z,59.67
2022-10-28T07:12:10.114Z,59.63
2022-10-28T07:13:11.914Z,59.58
2022-10-28T07:14:13.556Z,59.56
2022-10-28T07:15:15.286Z,59.58
2022-10-28T07:16:16.994Z,59.53
2022-10-28T07:17:18.645Z,59.56
2022-10-28T07:18:21.341Z,59.52
2022-10-28T07:19:23.022Z,59.51
2022-10-28T07:20:27.363Z,59.48
2022-10-28T07:21:29.865Z,59.46
2022-10-28T07:22:31.551Z,59.15
2022-10-28T07:23:34.215Z,58.58
2022-10-28T07:24:35.887Z,58.76
2022-10-28T07:25:37.966Z,59.80
2022-10-28T07:26:40.061Z,60.86
2022-10-28T07:27:41.721Z,61.92
2022-10-28T07:28:43.401Z,63.95
2022-10-28T07:29:45.189Z,65.59
2022-10-28T07:30:46.975Z,65.92
2022-10-28T07:31:48.735Z,65.44
2022-10-28T07:32:50.435Z,64.62
2022-10-28T07:33:53.523Z,63.89
2022-10-28T07:34:55.195Z,63.11
2022-10-28T07:35:56.929Z,62.49
2022-10-28T07:36:58.649Z,61.93
2022-10-28T07:38:00.395Z,61.48
2022-10-28T07:39:02.374Z,61.11
2022-10-28T07:40:04.693Z,60.82
2022-10-28T07:41:09.275Z,60.67
2022-10-28T07:42:11.034Z,60.45
2022-10-28T07:43:12.710Z,60.24
2022-10-28T07:44:14.832Z,60.03
2022-10-28T07:45:17.921Z,59.83
2022-10-28T07:46:20.033Z,59.71
2022-10-28T07:47:22.256Z,59.54
2022-10-28T07:48:24.504Z,59.45
2022-10-28T07:49:26.266Z,59.12
2022-10-28T07:50:27.891Z,58.51
2022-10-28T07:51:29.967Z,58.93
2022-10-28T07:52:31.815Z,59.79
2022-10-28T07:53:34.446Z,61.30
2022-10-28T07:54:36.134Z,62.83
2022-10-28T07:55:37.909Z,64.52
2022-10-28T07:56:39.760Z,65.40
2022-10-28T07:57:41.430Z,65.18
2022-10-28T07:58:45.125Z,64.43
2022-10-28T07:59:46.761Z,63.50
2022-10-28T08:00:48.787Z,62.73
2022-10-28T08:01:50.654Z,62.08
2022-10-28T08:02:52.319Z,61.42
2022-10-28T08:03:54.087Z,61.02
2022-10-28T08:04:56.822Z,60.58
2022-10-28T08:06:13.313Z,60.28
2022-10-28T08:07:16.301Z,60.05
2022-10-28T08:08:18.031Z,59.77
2022-10-28T08:09:19.726Z,59.53
2022-10-28T08:10:21.379Z,59.25
2022-10-28T08:11:24.394Z,58.45
2022-10-28T08:12:27.611Z,58.60
2022-10-28T08:13:29.221Z,59.34
2022-10-28T08:14:30.853Z,60.43
2022-10-28T08:15:32.852Z,61.65
2022-10-28T08:16:34.562Z,62.61
2022-10-28T08:17:36.332Z,64.58
2022-10-28T08:18:39.424Z,65.80
2022-10-28T08:19:41.106Z,65.85
2022-10-28T08:20:42.742Z,65.28
2022-10-28T08:21:44.400Z,64.62
2022-10-28T08:22:46.663Z,63.77
2022-10-28T08:23:48.832Z,63.15
2022-10-28T08:24:50.483Z,62.57
2022-10-28T08:25:53.529Z,62.19
2022-10-28T08:26:55.318Z,61.64
2022-10-28T08:27:58.076Z,61.39
2022-10-28T08:29:01.535Z,61.08
2022-10-28T08:30:05.120Z,60.74
2022-10-28T08:31:09.549Z,60.58
2022-10-28T08:32:11.515Z,60.38
2022-10-28T08:33:14.971Z,60.07
2022-10-28T08:34:16.811Z,59.93
2022-10-28T08:35:18.551Z,59.78
2022-10-28T08:36:20.223Z,59.62
2022-10-28T08:37:22.234Z,59.45
2022-10-28T08:38:24.225Z,58.89
2022-10-28T08:39:25.839Z,58.76
2022-10-28T08:40:57.105Z,59.28
2022-10-28T08:42:32.903Z,60.37
2022-10-28T08:43:58.084Z,62.64
2022-10-28T08:45:34.620Z,64.90
2022-10-28T08:47:01.950Z,65.62
2022-10-28T08:48:31.326Z,64.83
2022-10-28T08:49:40.019Z,63.77
2022-10-28T08:50:51.632Z,63.12
2022-10-28T08:52:06.031Z,62.60
2022-10-28T08:53:15.518Z,61.96
2022-10-28T08:54:27.499Z,61.63
2022-10-28T08:55:39.825Z,61.39
2022-10-28T08:56:46.140Z,61.06
2022-10-28T08:58:07.432Z,60.84
2022-10-28T08:59:17.618Z,60.59
2022-10-28T09:00:27.116Z,60.39
2022-10-28T09:01:49.131Z,60.16
2022-10-28T09:03:14.820Z,59.93
2022-10-28T09:04:44.844Z,59.65
2022-10-28T09:05:50.086Z,59.47
2022-10-28T09:06:52.393Z,59.13
2022-10-28T09:07:57.511Z,58.45
2022-10-28T09:08:59.333Z,58.57
2022-10-28T09:10:01.023Z,59.56
2022-10-28T09:11:08.857Z,60.51
2022-10-28T09:12:22.432Z,62.11
2022-10-28T09:13:41.588Z,63.25
2022-10-28T09:15:01.440Z,65.05
2022-10-28T09:16:11.235Z,64.96
2022-10-28T09:17:21.311Z,64.22
2022-10-28T09:18:32.287Z,63.36
2022-10-28T09:19:33.912Z,62.52
2022-10-28T09:20:45.516Z,61.80
2022-10-28T09:21:51.009Z,61.00
2022-10-28T09:22:58.994Z,60.41
2022-10-28T09:24:19.494Z,60.09
2022-10-28T09:25:53.354Z,59.88
2022-10-28T09:27:10.115Z,59.36
2022-10-28T09:28:36.255Z,58.52
2022-10-28T09:29:50.519Z,58.51
2022-10-28T09:31:13.734Z,59.46
2022-10-28T09:32:39.290Z,60.85
2022-10-28T09:33:51.233Z,62.46
2022-10-28T09:35:10.866Z,64.06
2022-10-28T09:36:21.245Z,64.68
2022-10-28T09:37:32.863Z,64.13
2022-10-28T09:38:40.788Z,63.09
2022-10-28T09:39:47.995Z,62.09
2022-10-28T09:41:01.097Z,61.06
2022-10-28T09:42:04.609Z,60.23
2022-10-28T09:43:19.388Z,59.40
2022-10-28T09:44:41.396Z,58.21
2022-10-28T09:45:48.153Z,57.92
2022-10-28T09:46:57.108Z,58.60
2022-10-28T09:48:04.177Z,59.39
2022-10-28T09:49:15.475Z,60.70
2022-10-28T09:50:22.761Z,61.71
2022-10-28T09:51:55.268Z,62.67
2022-10-28T09:53:20.398Z,64.29
2022-10-28T09:54:33.025Z,64.30
2022-10-28T09:55:35.101Z,63.36
2022-10-28T09:56:38.033Z,62.20
2022-10-28T09:57:39.684Z,61.23
2022-10-28T09:58:49.333Z,60.46
2022-10-28T09:59:51.546Z,58.74
2022-10-28T10:00:53.264Z,57.63
2022-10-28T10:01:55.199Z,57.15
2022-10-28T10:02:59.021Z,57.72
2022-10-28T10:04:01.488Z,58.37
2022-10-28T10:05:03.602Z,59.23
2022-10-28T10:06:19.216Z,60.34
2022-10-28T10:07:37.562Z,61.39
2022-10-28T10:08:41.516Z,62.28
2022-10-28T10:09:45.036Z,63.01
2022-10-28T10:10:57.599Z,64.56
2022-10-28T10:12:10.526Z,64.53
2022-10-28T10:13:16.992Z,63.17
2022-10-28T10:14:26.807Z,61.96
2022-10-28T10:15:40.235Z,60.81
2022-10-28T10:17:17.301Z,59.55
2022-10-28T10:18:24.838Z,57.48
2022-10-28T10:19:26.539Z,56.94
2022-10-28T10:20:28.218Z,57.27
2022-10-28T10:21:48.336Z,57.81
2022-10-28T10:22:50.280Z,58.57
2022-10-28T10:23:51.900Z,59.56
2022-10-28T10:24:53.515Z,60.25
2022-10-28T10:26:09.679Z,60.99
2022-10-28T10:27:19.831Z,61.13
2022-10-28T10:28:22.300Z,61.70
2022-10-28T10:29:24.956Z,62.11
2022-10-28T10:30:35.397Z,62.30
2022-10-28T10:31:37.035Z,62.84
2022-10-28T10:32:38.738Z,63.68
2022-10-28T10:33:40.988Z,63.67
2022-10-28T10:34:49.854Z,62.55
2022-10-28T10:36:03.988Z,61.04
2022-10-28T10:37:05.714Z,59.79
2022-10-28T10:38:07.936Z,58.25
2022-10-28T10:39:26.844Z,56.34
2022-10-28T10:40:33.569Z,56.07
2022-10-28T10:41:36.697Z,56.31
2022-10-28T10:42:46.571Z,56.60
2022-10-28T10:43:59.233Z,56.93
2022-10-28T10:45:16.106Z,57.62
2022-10-28T10:46:18.003Z,58.05
2022-10-28T10:47:20.900Z,58.33
2022-10-28T10:48:22.608Z,58.98
2022-10-28T10:49:24.281Z,59.23
2022-10-28T10:51:41.288Z,60.02
2022-10-28T10:52:50.793Z,60.06
2022-10-28T10:53:57.820Z,60.62
2022-10-28T10:55:22.188Z,60.74
2022-10-28T10:56:34.053Z,60.70
2022-10-28T10:57:35.971Z,60.74
2022-10-28T10:58:51.618Z,60.66
2022-10-28T10:59:56.346Z,60.10
2022-10-28T11:01:02.565Z,59.90
2022-10-28T11:02:22.371Z,59.95
2022-10-28T11:03:30.274Z,59.83
2022-10-28T11:04:36.755Z,59.58
2022-10-28T11:05:48.019Z,59.51
2022-10-28T11:06:58.155Z,59.44
2022-10-28T11:08:04.936Z,59.53
2022-10-28T11:09:26.980Z,59.71
2022-10-28T11:10:32.282Z,59.67
2022-10-28T11:11:39.926Z,59.93
2022-10-28T11:12:53.315Z,60.68
2022-10-28T11:14:08.843Z,60.38
2022-10-28T11:15:16.621Z,60.34
2022-10-28T11:16:24.612Z,60.02
2022-10-28T11:17:35.507Z,59.31
2022-10-28T11:18:43.836Z,58.87
2022-10-28T11:19:45.436Z,58.82
2022-10-28T11:21:05.637Z,59.17
2022-10-28T11:22:25.642Z,59.15
2022-10-28T11:23:54.669Z,58.88
2022-10-28T11:25:10.195Z,58.74
2022-10-28T11:26:17.973Z,58.76
2022-10-28T11:28:03.071Z,58.46
2022-10-28T11:29:14.853Z,58.19
2022-10-28T11:30:20.679Z,57.68
2022-10-28T11:31:50.152Z,57.57
2022-10-28T11:33:31.952Z,57.09
2022-10-28T11:35:09.081Z,57.01
2022-10-28T11:36:17.679Z,56.74
2022-10-28T11:37:40.921Z,56.55
2022-10-28T11:39:07.735Z,56.57
2022-10-28T11:40:42.465Z,56.08
2022-10-28T11:41:59.975Z,56.20
2022-10-28T11:43:19.636Z,56.01
2022-10-28T11:44:43.756Z,55.90
2022-10-28T11:45:59.469Z,55.60
2022-10-28T11:47:21.737Z,55.37
2022-10-28T11:49:05.106Z,54.85
2022-10-28T11:50:54.509Z,54.82
2022-10-28T11:52:03.260Z,55.08
2022-10-28T11:53:37.220Z,55.42
2022-10-28T11:55:14.300Z,55.07
2022-10-28T11:56:28.090Z,54.22
2022-10-28T11:58:05.196Z,54.15
2022-10-28T11:59:30.364Z,53.86
2022-10-28T12:00:53.749Z,53.62
2022-10-28T12:02:07.507Z,53.32
2022-10-28T12:03:27.705Z,52.78
2022-10-28T12:04:53.967Z,52.20
2022-10-28T12:06:15.140Z,51.77
2022-10-28T12:08:00.557Z,51.92
2022-10-28T12:09:32.773Z,52.31
2022-10-28T12:10:50.539Z,52.55
2022-10-28T12:12:05.682Z,52.20
2022-10-28T12:13:24.020Z,52.12
2022-10-28T12:14:44.638Z,51.83
2022-10-28T12:15:59.668Z,51.73
2022-10-28T12:17:30.465Z,51.96
2022-10-28T12:18:47.948Z,51.52
2022-10-28T12:20:20.697Z,50.99
2022-10-28T12:23:00.999Z,50.32
2022-10-28T12:24:10.797Z,50.20
2022-10-28T12:25:23.946Z,50.38
2022-10-28T12:26:40.108Z,50.17
2022-10-28T12:27:48.023Z,49.38
2022-10-28T12:28:57.215Z,48.81
2022-10-28T12:30:23.773Z,48.17
2022-10-28T12:31:30.813Z,47.71
2022-10-28T12:32:36.085Z,47.75
2022-10-28T12:33:50.225Z,47.85
2022-10-28T12:35:02.066Z,47.72
2022-10-28T12:36:03.933Z,47.79
2022-10-28T12:37:14.087Z,47.97
2022-10-28T12:38:34.479Z,48.04
2022-10-28T12:39:49.597Z,48.09
2022-10-28T12:41:25.884Z,47.67
2022-10-28T12:42:55.067Z,47.39
2022-10-28T12:44:13.982Z,47.84
2022-10-28T12:45:19.117Z,48.06
2022-10-28T12:46:53.987Z,48.35
2022-10-28T12:48:12.139Z,48.13
2022-10-28T12:49:23.950Z,47.70
2022-10-28T12:50:53.001Z,47.47
2022-10-28T12:52:02.748Z,47.10
2022-10-28T12:53:04.256Z,47.28
2022-10-28T12:54:16.147Z,47.23
2022-10-28T12:55:40.993Z,47.75
2022-10-28T12:56:50.627Z,48.44
2022-10-28T12:58:02.509Z,48.50
2022-10-28T12:59:17.283Z,48.70
2022-10-28T13:00:40.529Z,48.66
2022-10-28T13:01:48.824Z,48.49
2022-10-28T13:03:00.694Z,48.54
2022-10-28T13:04:03.188Z,48.57
2022-10-28T13:05:06.590Z,48.35
2022-10-28T13:06:25.770Z,48.48
2022-10-28T13:07:58.664Z,48.67
2022-10-28T13:09:22.089Z,48.17
2022-10-28T13:10:39.948Z,48.27
2022-10-28T13:12:00.886Z,48.52
2022-10-28T13:13:10.941Z,48.75
2022-10-28T13:14:28.944Z,48.52
2022-10-28T13:15:55.692Z,48.14
2022-10-28T13:17:30.595Z,48.40
2022-10-28T13:18:58.216Z,48.87
2022-10-28T13:20:11.444Z,48.93
2022-10-28T13:21:49.814Z,48.91
2022-10-28T13:22:51.345Z,49.10
2022-10-28T13:24:27.295Z,49.01
2022-10-28T13:25:28.818Z,48.96
2022-10-28T13:26:36.753Z,49.11
2022-10-28T13:27:39.284Z,49.31
2022-10-28T13:28:55.046Z,49.52
2022-10-28T13:30:00.713Z,49.69
2022-10-28T13:31:07.206Z,49.91
2022-10-28T13:32:39.891Z,50.26
2022-10-28T13:33:57.951Z,50.64
2022-10-28T13:35:10.334Z,50.73
2022-10-28T13:36:17.874Z,50.96
2022-10-28T13:37:23.997Z,51.17
2022-10-28T13:38:27.199Z,51.40
2022-10-28T13:39:28.789Z,51.63
2022-10-28T13:40:30.337Z,51.71
2022-10-28T13:41:37.680Z,52.02
2022-10-28T13:42:42.037Z,52.47
2022-10-28T13:43:49.560Z,52.92
2022-10-28T13:45:04.806Z,53.13
2022-10-28T13:46:06.563Z,53.39
2022-10-28T13:47:17.251Z,53.63
2022-10-28T13:48:45.371Z,54.04
2022-10-28T13:50:08.916Z,54.08
2022-10-28T13:51:10.689Z,54.20
2022-10-28T13:52:13.241Z,54.38
2022-10-28T13:53:26.686Z,54.62
2022-10-28T13:54:53.891Z,54.90
2022-10-28T13:55:58.853Z,54.85
2022-10-28T13:57:12.659Z,55.02
2022-10-28T13:58:32.662Z,55.32
2022-10-28T14:00:00.987Z,55.32
2022-10-28T14:01:36.752Z,55.40
2022-10-28T14:02:42.251Z,55.80
2022-10-28T14:03:52.005Z,55.96
2022-10-28T14:05:02.837Z,56.10
2022-10-28T14:06:04.859Z,56.27
2022-10-28T14:07:31.552Z,56.55
2022-10-28T14:08:40.056Z,56.78
2022-10-28T14:09:43.544Z,56.83
2022-10-28T14:11:02.766Z,56.73
2022-10-28T14:12:17.351Z,56.52
2022-10-28T14:13:22.484Z,56.41
2022-10-28T14:14:24.215Z,56.48
2022-10-28T14:15:33.776Z,56.28
2022-10-28T14:16:44.883Z,55.97
2022-10-28T14:18:22.652Z,55.86
2022-10-28T14:19:28.889Z,55.57
2022-10-28T14:20:38.157Z,55.44
2022-10-28T14:21:45.677Z,55.25
2022-10-28T14:22:47.586Z,55.08
2022-10-28T14:24:11.327Z,54.89
2022-10-28T14:25:40.892Z,54.89
2022-10-28T14:27:28.744Z,54.73
2022-10-28T14:28:30.479Z,54.69
2022-10-28T14:29:46.604Z,54.64
2022-10-28T14:31:08.177Z,54.68
2022-10-28T14:32:31.695Z,54.86
2022-10-28T14:33:42.331Z,54.90
2022-10-28T14:34:46.039Z,55.10
2022-10-28T14:35:55.471Z,55.34
2022-10-28T14:37:10.350Z,55.58
2022-10-28T14:38:38.621Z,55.74
2022-10-28T14:39:59.590Z,56.10
2022-10-28T14:41:25.819Z,56.44
2022-10-28T14:44:21.788Z,56.96
2022-10-28T14:45:44.881Z,57.26
2022-10-28T14:47:23.911Z,57.45
2022-10-28T14:48:44.516Z,57.81
2022-10-28T14:50:12.789Z,57.98